Time;durP1;ratioP1;P1;durP2;ratioP2;P2;SDS_P1;SDS_P2;PMS_P1;PMS_P2;Temp;Humidity;BMP_temperature;BMP_pressure;BME280_temperature;BME280_humidity;BME280_pressure;Samples;Min_cycle;Max_cycle;Signal;HPM_P1;HPM_P2
2022/11/19 00:01:25;;;;;;;23.60;18.02;;;;;;;1.15;100.00;100154.23;1767881;80;21121;-61
2022/11/19 00:03:53;;;;;;;20.77;15.72;;;;;;;1.09;100.00;100129.86;1767754;80;21042;-60
2022/11/19 00:06:23;;;;;;;23.25;16.80;;;;;;;1.10;100.00;100123.80;1780233;80;22992;-60
2022/11/19 00:08:51;;;;;;;18.75;14.03;;;;;;;1.14;100.00;100107.20;1762586;80;22227;-61
2022/11/19 00:14:13;;;;;;;21.12;15.05;;;;;;;1.18;100.00;100118.84;1759327;80;20980;-70
2022/11/19 00:16:42;;;;;;;24.63;15.93;;;;;;;1.17;100.00;100091.53;1757205;80;20947;-60
2022/11/19 00:19:11;;;;;;;26.17;15.85;;;;;;;1.18;100.00;100095.75;1754875;80;21175;-63
2022/11/19 00:21:39;;;;;;;38.48;20.60;;;;;;;1.15;100.00;100097.75;1746012;81;20971;-61
2022/11/19 00:24:07;;;;;;;35.83;20.35;;;;;;;1.24;100.00;100108.53;1747895;80;21527;-72
2022/11/19 00:26:35;;;;;;;39.45;22.27;;;;;;;1.22;100.00;100107.86;1756717;80;21387;-61
2022/11/19 00:29:02;;;;;;;38.75;21.23;;;;;;;1.23;100.00;100114.62;1752240;80;21630;-62
2022/11/19 00:31:30;;;;;;;52.58;26.15;;;;;;;1.24;100.00;100119.28;1762607;80;21138;-61
2022/11/19 00:33:57;;;;;;;59.93;27.22;;;;;;;1.24;100.00;100109.00;1680487;82;21008;-72
2022/11/19 00:36:25;;;;;;;67.45;31.45;;;;;;;1.14;100.00;100100.79;1728018;82;21042;-61
2022/11/19 00:38:54;;;;;;;72.10;31.95;;;;;;;1.22;100.00;100106.58;1730660;82;21070;-61
2022/11/19 00:41:21;;;;;;;71.75;30.52;;;;;;;1.21;100.00;100119.05;1732942;82;20944;-60
2022/11/19 00:43:49;;;;;;;77.70;33.25;;;;;;;1.14;100.00;100123.89;1730242;81;21165;-60
2022/11/19 00:46:25;;;;;;;77.00;34.75;;;;;;;1.26;100.00;100108.42;1751343;80;20988;-72
2022/11/19 00:48:54;;;;;;;87.62;38.92;;;;;;;1.20;100.00;100098.17;1756185;80;21019;-63
2022/11/19 00:51:22;;;;;;;92.57;39.98;;;;;;;1.24;100.00;100093.12;1731479;82;21070;-60
2022/11/19 00:53:49;;;;;;;94.30;40.25;;;;;;;1.23;100.00;100104.82;1724161;81;21594;-61
2022/11/19 00:56:18;;;;;;;93.27;41.60;;;;;;;1.24;100.00;100101.30;1729426;82;21224;-71
2022/11/19 00:58:46;;;;;;;112.37;46.05;;;;;;;1.27;100.00;100095.92;1752401;81;21563;-61
2022/11/19 01:01:15;;;;;;;103.62;46.58;;;;;;;1.32;100.00;100105.33;1730655;82;21135;-60
2022/11/19 01:03:44;;;;;;;109.03;46.18;;;;;;;1.31;100.00;100104.99;1749824;81;20991;-61
2022/11/19 01:06:12;;;;;;;99.72;45.50;;;;;;;1.35;100.00;100096.91;1738585;81;21019;-71
2022/11/19 01:08:40;;;;;;;96.22;42.93;;;;;;;1.32;100.00;100111.27;1733223;81;21012;-61
2022/11/19 01:11:15;;;;;;;98.10;43.78;;;;;;;1.36;100.00;100097.71;1749988;81;20919;-60
2022/11/19 01:13:42;;;;;;;90.87;42.58;;;;;;;1.33;100.00;100105.70;1749874;80;21005;-69
2022/11/19 01:16:17;;;;;;;106.20;46.13;;;;;;;1.34;100.00;100107.31;1724624;82;20935;-68
2022/11/19 01:18:47;;;;;;;99.52;47.15;;;;;;;1.37;100.00;100106.59;1730191;82;21481;-60
2022/11/19 01:21:14;;;;;;;88.15;41.58;;;;;;;1.43;100.00;100103.97;1727682;82;21276;-60
2022/11/19 01:23:44;;;;;;;96.15;44.03;;;;;;;1.45;100.00;100113.66;1724278;81;20923;-61
2022/11/19 01:26:11;;;;;;;99.35;43.42;;;;;;;1.47;100.00;100123.31;1753737;81;20981;-60
2022/11/19 01:28:39;;;;;;;93.10;41.25;;;;;;;1.49;100.00;100111.17;1753344;81;21420;-60
2022/11/19 01:31:16;;;;;;;91.60;40.58;;;;;;;1.46;100.00;100107.58;1755186;80;20900;-65
2022/11/19 01:33:43;;;;;;;91.65;43.60;;;;;;;1.49;100.00;100100.09;1752983;80;21255;-60
2022/11/19 01:36:19;;;;;;;94.62;42.40;;;;;;;1.55;100.00;100092.66;1736291;82;21058;-61
2022/11/19 01:38:49;;;;;;;79.32;34.90;;;;;;;1.59;100.00;100077.80;1748454;81;21506;-60
2022/11/19 01:41:27;;;;;;;60.30;31.80;;;;;;;1.59;100.00;100068.37;1754848;80;21000;-72
2022/11/19 01:43:59;;;;;;;54.45;29.98;;;;;;;1.58;100.00;100068.00;1728415;82;21153;-63
2022/11/19 01:46:31;;;;;;;47.62;27.58;;;;;;;1.58;100.00;100069.77;1740438;82;21569;-61
2022/11/19 01:49:16;;;;;;;40.65;24.55;;;;;;;1.57;100.00;100057.39;1740806;82;22225;-60
2022/11/19 01:51:59;;;;;;;33.55;20.55;;;;;;;1.60;100.00;100047.34;1733821;81;21121;-63
2022/11/19 01:54:40;;;;;;;32.13;19.50;;;;;;;1.55;100.00;100045.14;1733018;81;21060;-61
2022/11/19 01:57:10;;;;;;;30.45;19.48;;;;;;;1.52;100.00;100031.30;1747000;81;21113;-72
2022/11/19 01:59:37;;;;;;;28.67;17.90;;;;;;;1.54;100.00;100029.87;1747757;81;21293;-60
2022/11/19 02:02:04;;;;;;;30.15;17.55;;;;;;;1.52;100.00;100038.19;1723682;81;21524;-60
2022/11/19 02:04:32;;;;;;;26.05;16.37;;;;;;;1.50;100.00;100028.50;1734440;81;21575;-60
2022/11/19 02:07:01;;;;;;;24.82;15.88;;;;;;;1.52;100.00;100024.88;1759535;80;21128;-61
2022/11/19 02:09:29;;;;;;;24.15;15.35;;;;;;;1.49;100.00;100021.27;1751833;81;21490;-63
2022/11/19 02:12:18;;;;;;;21.02;13.68;;;;;;;1.42;100.00;100013.27;1740694;82;21155;-62
2022/11/19 02:15:14;;;;;;;22.80;14.90;;;;;;;1.45;100.00;100010.45;1758740;80;21033;-60
2022/11/19 02:18:36;;;;;;;22.42;15.48;;;;;;;1.45;100.00;100017.34;1756696;81;21475;-72
2022/11/19 02:21:20;;;;;;;26.50;16.00;;;;;;;1.45;100.00;100025.05;1752819;81;21473;-65
2022/11/19 02:24:15;;;;;;;24.30;15.68;;;;;;;1.47;100.00;100034.70;1753359;81;21452;-60
2022/11/19 02:27:07;;;;;;;25.70;16.02;;;;;;;1.48;100.00;100047.91;1757049;81;21302;-74
2022/11/19 02:29:59;;;;;;;25.88;16.60;;;;;;;1.47;100.00;100057.82;1757319;81;21060;-61
2022/11/19 02:32:52;;;;;;;24.85;15.85;;;;;;;1.45;100.00;100049.45;1757544;81;20949;-72
2022/11/19 02:35:34;;;;;;;22.60;14.80;;;;;;;1.46;100.00;100053.64;1772616;80;20970;-60
2022/11/19 02:38:21;;;;;;;26.10;14.55;;;;;;;1.48;100.00;100046.63;1749663;81;21261;-62
2022/11/19 02:40:58;;;;;;;25.82;16.32;;;;;;;1.50;100.00;100051.15;1736872;81;21264;-65
2022/11/19 02:43:35;;;;;;;21.70;15.05;;;;;;;1.50;100.00;100061.89;1736766;82;20903;-60
2022/11/19 02:46:08;;;;;;;22.42;12.75;;;;;;;1.51;100.00;100049.39;1745611;81;21053;-61
2022/11/19 02:48:45;;;;;;;22.27;13.93;;;;;;;1.53;100.00;100036.77;1736493;82;20995;-60
2022/11/19 02:51:14;;;;;;;19.37;13.10;;;;;;;1.53;100.00;100049.61;1736455;82;21028;-72
2022/11/19 02:53:42;;;;;;;20.48;14.18;;;;;;;1.57;100.00;100020.63;1736714;82;21203;-62
2022/11/19 02:56:16;;;;;;;19.85;13.20;;;;;;;1.56;100.00;100033.13;1736527;82;21018;-60
2022/11/19 03:04:40;;;;;;;17.07;12.40;;;;;;;1.55;100.00;100057.98;1736071;82;20946;-62
2022/11/19 03:07:13;;;;;;;17.27;12.75;;;;;;;1.59;100.00;100066.25;1736349;82;22451;-61
2022/11/19 03:09:48;;;;;;;16.95;12.28;;;;;;;1.58;100.00;100062.87;1736698;82;21504;-69
2022/11/19 03:12:54;;;;;;;17.12;12.25;;;;;;;1.57;100.00;100049.69;1736340;81;21072;-72
2022/11/19 03:18:58;;;;;;;16.25;11.55;;;;;;;1.58;100.00;100034.61;1768417;79;21433;-62
2022/11/19 03:22:16;;;;;;;15.63;11.75;;;;;;;1.57;100.00;100009.06;1768220;81;21500;-63
2022/11/19 03:24:51;;;;;;;16.48;12.18;;;;;;;1.51;100.00;100002.67;1768520;79;21520;-62
2022/11/19 03:27:29;;;;;;;18.98;12.78;;;;;;;1.48;100.00;100000.39;1768670;79;20961;-61
2022/11/19 03:29:56;;;;;;;18.23;12.23;;;;;;;1.45;100.00;99998.89;1768141;81;20996;-66
2022/11/19 03:32:31;;;;;;;20.10;14.00;;;;;;;1.36;100.00;100008.64;1768532;81;20980;-61
2022/11/19 03:35:04;;;;;;;18.75;13.05;;;;;;;1.39;100.00;99998.59;1768702;79;21405;-63
2022/11/19 03:37:31;;;;;;;20.88;13.43;;;;;;;1.40;100.00;100005.34;1768230;80;20951;-72
2022/11/19 03:39:58;;;;;;;18.62;12.43;;;;;;;1.38;100.00;99986.70;1767712;79;21069;-58
2022/11/19 03:42:26;;;;;;;16.82;12.85;;;;;;;1.40;100.00;100006.63;1768694;81;21447;-59
2022/11/19 03:45:10;;;;;;;17.42;13.43;;;;;;;1.44;100.00;100004.17;1768599;79;21049;-60
2022/11/19 03:47:39;;;;;;;18.45;12.85;;;;;;;1.47;100.00;100002.59;1768147;81;21145;-59
2022/11/19 03:50:17;;;;;;;17.98;13.80;;;;;;;1.47;100.00;100003.88;1774276;79;21013;-59
2022/11/19 03:52:44;;;;;;;18.92;12.55;;;;;;;1.47;100.00;100007.73;1785131;79;20938;-63
2022/11/19 03:55:12;;;;;;;15.95;12.13;;;;;;;1.50;100.00;99997.68;1786482;79;20996;-65
2022/11/19 03:57:39;;;;;;;19.70;13.50;;;;;;;1.47;100.00;99965.35;1787144;80;20966;-61
2022/11/19 04:00:10;;;;;;;17.40;12.75;;;;;;;1.50;100.00;99965.09;1760836;80;21113;-61
2022/11/19 04:06:25;;;;;;;20.15;14.47;;;;;;;1.44;100.00;99967.73;1768063;81;20973;-60
2022/11/19 04:08:52;;;;;;;19.00;13.13;;;;;;;1.41;100.00;99953.05;1739606;81;21021;-61
2022/11/19 04:11:19;;;;;;;19.48;14.20;;;;;;;1.40;100.00;99939.85;1742051;82;20865;-63
2022/11/19 04:13:46;;;;;;;21.37;14.23;;;;;;;1.40;100.00;99943.70;1742081;82;21272;-62
2022/11/19 04:16:14;;;;;;;21.97;15.00;;;;;;;1.40;100.00;99942.42;1742012;82;20956;-69
2022/11/19 04:18:41;;;;;;;20.95;15.00;;;;;;;1.39;100.00;99933.09;1742130;82;20908;-60
2022/11/19 04:21:08;;;;;;;21.42;14.58;;;;;;;1.41;100.00;99937.17;1741945;82;20942;-73
2022/11/19 04:23:36;;;;;;;22.98;15.23;;;;;;;1.37;100.00;99935.00;1741854;82;21057;-62
2022/11/19 04:26:03;;;;;;;22.07;15.68;;;;;;;1.41;100.00;99930.75;1710936;83;21155;-62
2022/11/19 04:28:30;;;;;;;21.80;15.13;;;;;;;1.45;100.00;99934.67;1710449;83;21500;-61
2022/11/19 04:30:57;;;;;;;21.07;14.90;;;;;;;1.44;100.00;99921.50;1710864;83;22427;-60
2022/11/19 04:33:25;;;;;;;23.12;16.15;;;;;;;1.49;100.00;99915.96;1711007;83;21461;-67
2022/11/19 04:35:52;;;;;;;24.23;16.97;;;;;;;1.45;100.00;99920.55;1710785;83;21037;-60
2022/11/19 04:38:19;;;;;;;20.35;14.10;;;;;;;1.46;100.00;99913.66;1710905;83;21873;-71
2022/11/19 04:40:47;;;;;;;24.47;16.50;;;;;;;1.45;100.00;99912.84;1711024;83;20946;-59
2022/11/19 04:43:14;;;;;;;23.98;15.85;;;;;;;1.45;100.00;99904.34;1711040;83;21354;-59
2022/11/19 04:45:43;;;;;;;23.60;16.60;;;;;;;1.49;100.00;99890.75;1710588;83;21340;-59
2022/11/19 04:48:10;;;;;;;23.25;15.80;;;;;;;1.48;100.00;99901.50;1711033;83;21056;-72
2022/11/19 04:50:38;;;;;;;23.90;15.25;;;;;;;1.51;100.00;99888.38;1738836;81;21081;-59
2022/11/19 04:53:05;;;;;;;20.57;14.70;;;;;;;1.50;100.00;99866.69;1742114;82;21064;-60
2022/11/19 04:55:32;;;;;;;21.17;15.53;;;;;;;1.52;100.00;99868.66;1741514;82;20981;-60
2022/11/19 04:58:00;;;;;;;20.77;14.18;;;;;;;1.52;100.00;99878.45;1742166;82;21120;-61
2022/11/19 05:00:26;;;;;;;20.27;14.60;;;;;;;1.53;100.00;99865.14;1745845;81;20912;-61
2022/11/19 05:02:54;;;;;;;20.85;14.55;;;;;;;1.57;100.00;99864.73;1768531;81;21164;-60
2022/11/19 05:05:21;;;;;;;20.17;13.55;;;;;;;1.58;100.00;99865.53;1767288;81;21034;-69
2022/11/19 05:07:48;;;;;;;21.52;14.68;;;;;;;1.59;100.00;99862.02;1741871;82;21038;-58
2022/11/19 05:10:15;;;;;;;20.60;14.43;;;;;;;1.62;100.00;99863.84;1741702;82;22395;-71
2022/11/19 05:12:42;;;;;;;20.08;13.00;;;;;;;1.67;100.00;99854.47;1742144;80;22037;-62
2022/11/19 05:15:10;;;;;;;19.15;13.88;;;;;;;1.70;100.00;99843.45;1714779;82;21184;-61
2022/11/19 05:17:38;;;;;;;17.23;12.47;;;;;;;1.72;100.00;99859.19;1741316;82;20962;-65
2022/11/19 05:20:08;;;;;;;19.95;13.32;;;;;;;1.68;100.00;99860.74;1742162;82;21117;-60
2022/11/19 05:22:35;;;;;;;17.52;12.40;;;;;;;1.69;100.00;99846.94;1741650;82;20939;-60
2022/11/19 05:25:04;;;;;;;15.53;11.15;;;;;;;1.73;100.00;99845.39;1742111;82;21016;-62
2022/11/19 05:27:31;;;;;;;18.12;12.33;;;;;;;1.77;100.00;99842.88;1742036;82;21250;-62
2022/11/19 05:29:59;;;;;;;16.02;11.38;;;;;;;1.82;100.00;99830.42;1741932;82;21472;-58
2022/11/19 05:32:26;;;;;;;17.57;11.88;;;;;;;1.89;100.00;99831.50;1742025;82;21531;-59
2022/11/19 05:34:54;;;;;;;16.57;11.80;;;;;;;1.95;100.00;99830.48;1741814;82;20954;-58
2022/11/19 05:37:21;;;;;;;14.40;9.78;;;;;;;1.98;100.00;99828.60;1742378;82;21058;-60
2022/11/19 05:39:50;;;;;;;18.10;12.37;;;;;;;1.96;100.00;99835.15;1739377;82;21148;-58
2022/11/19 05:42:17;;;;;;;16.48;12.07;;;;;;;2.07;100.00;99820.85;1739516;82;21072;-58
2022/11/19 05:44:46;;;;;;;16.05;10.72;;;;;;;2.09;100.00;99818.16;1738986;82;20974;-58
2022/11/19 05:47:15;;;;;;;16.90;11.55;;;;;;;2.12;100.00;99806.29;1739594;82;21069;-58
2022/11/19 05:49:42;;;;;;;13.95;9.78;;;;;;;2.15;100.00;99782.39;1738759;82;20929;-69
2022/11/19 05:52:10;;;;;;;14.53;10.08;;;;;;;2.18;100.00;99796.75;1708670;83;21167;-69
2022/11/19 05:54:37;;;;;;;14.47;9.98;;;;;;;2.27;100.00;99797.66;1708169;82;20946;-59
2022/11/19 05:57:06;;;;;;;13.13;8.85;;;;;;;2.40;100.00;99786.59;1742528;82;21523;-58
2022/11/19 05:59:33;;;;;;;13.45;9.65;;;;;;;2.48;100.00;99785.39;1741478;82;21429;-58
2022/11/19 06:02:00;;;;;;;12.82;9.23;;;;;;;2.56;100.00;99779.06;1742079;82;21012;-58
2022/11/19 06:04:29;;;;;;;14.15;9.43;;;;;;;2.64;100.00;99775.77;1741506;80;21159;-61
2022/11/19 06:06:56;;;;;;;12.20;9.00;;;;;;;2.67;100.00;99776.30;1739327;82;22301;-59
2022/11/19 06:09:24;;;;;;;12.78;9.83;;;;;;;2.72;100.00;99778.91;1741852;82;21001;-71
2022/11/19 06:11:53;;;;;;;14.30;10.28;;;;;;;2.84;100.00;99746.86;1722236;82;20899;-63
2022/11/19 06:14:23;;;;;;;14.85;10.70;;;;;;;2.94;100.00;99756.63;1710735;83;21031;-74
2022/11/19 06:16:51;;;;;;;15.00;9.58;;;;;;;2.98;100.00;99732.20;1710951;83;21257;-61
2022/11/19 06:19:20;;;;;;;14.53;10.48;;;;;;;2.91;100.00;99729.40;1711094;83;20893;-72
2022/11/19 06:21:48;;;;;;;16.42;11.88;;;;;;;2.85;100.00;99713.75;1764885;81;20905;-61
2022/11/19 06:24:15;;;;;;;14.53;11.00;;;;;;;2.86;100.00;99701.20;1768521;80;20976;-61
2022/11/19 06:26:43;;;;;;;14.30;10.05;;;;;;;2.85;100.00;99694.45;1767591;81;21010;-63
2022/11/19 06:29:13;;;;;;;11.85;9.10;;;;;;;2.87;100.00;99669.35;1768469;81;21260;-61
2022/11/19 06:31:40;;;;;;;15.70;9.65;;;;;;;2.96;100.00;99701.95;1767971;81;20872;-72
2022/11/19 06:34:08;;;;;;;14.55;10.38;;;;;;;3.13;100.00;99685.66;1748294;81;20981;-63
2022/11/19 06:36:37;;;;;;;13.90;10.25;;;;;;;3.17;100.00;99683.11;1741833;82;21018;-72
2022/11/19 06:39:05;;;;;;;14.95;10.00;;;;;;;3.12;100.00;99687.92;1742292;82;21402;-60
2022/11/19 06:41:34;;;;;;;14.98;10.18;;;;;;;3.07;100.00;99699.15;1742346;80;21159;-70
2022/11/19 06:44:03;;;;;;;20.50;11.28;;;;;;;3.00;100.00;99677.52;1742219;80;21483;-59
2022/11/19 06:46:30;;;;;;;14.75;10.55;;;;;;;2.95;100.00;99694.36;1742322;80;20996;-69
2022/11/19 06:48:58;;;;;;;16.97;11.08;;;;;;;2.90;100.00;99688.37;1742227;80;21001;-58
2022/11/19 06:51:45;;;;;;;13.70;10.38;;;;;;;2.92;100.00;99665.87;1742680;80;20998;-59
2022/11/19 06:54:13;;;;;;;17.48;11.35;;;;;;;2.98;100.00;99672.98;1709654;83;21182;-61
2022/11/19 06:56:41;;;;;;;14.00;9.83;;;;;;;2.99;100.00;99666.06;1711084;82;20959;-61
2022/11/19 06:59:09;;;;;;;15.58;10.70;;;;;;;3.30;100.00;99673.73;1723327;81;21093;-63
2022/11/19 07:01:38;;;;;;;15.72;11.10;;;;;;;3.31;100.00;99662.95;1719556;82;20928;-62
2022/11/19 07:04:06;;;;;;;15.85;10.85;;;;;;;3.37;100.00;99652.02;1709307;83;21038;-62
2022/11/19 07:06:35;;;;;;;15.58;11.65;;;;;;;3.44;100.00;99658.67;1723971;83;21289;-66
2022/11/19 07:09:03;;;;;;;15.18;10.93;;;;;;;3.54;100.00;99629.27;1731600;82;20969;-66
2022/11/19 07:11:30;;;;;;;14.10;10.55;;;;;;;3.63;100.00;99639.94;1711307;83;21005;-74
2022/11/19 07:13:57;;;;;;;16.10;10.63;;;;;;;3.65;100.00;99638.51;1711732;83;21037;-61
2022/11/19 07:16:32;;;;;;;17.32;11.28;;;;;;;3.60;100.00;99631.25;1711885;83;20950;-67
2022/11/19 07:19:01;;;;;;;15.18;10.60;;;;;;;3.65;100.00;99629.49;1711903;83;21261;-60
2022/11/19 07:21:28;;;;;;;14.10;9.78;;;;;;;3.75;100.00;99619.05;1711374;83;21572;-60
2022/11/19 07:23:56;;;;;;;17.67;11.00;;;;;;;3.82;100.00;99627.78;1711912;83;21017;-59
2022/11/19 07:26:24;;;;;;;13.18;9.78;;;;;;;3.81;100.00;99631.33;1686757;83;21544;-69
2022/11/19 07:28:51;;;;;;;14.43;9.93;;;;;;;3.86;100.00;99643.27;1679988;84;21708;-60
2022/11/19 07:31:20;;;;;;;15.20;10.43;;;;;;;3.94;100.00;99602.06;1692847;83;22170;-63
2022/11/19 07:33:48;;;;;;;15.23;10.85;;;;;;;3.96;100.00;99584.66;1651880;85;21092;-63
2022/11/19 07:36:15;;;;;;;15.13;9.75;;;;;;;4.04;100.00;99588.55;1683086;85;20910;-62
2022/11/19 07:38:43;;;;;;;14.55;10.00;;;;;;;4.12;100.00;99592.91;1682427;85;21014;-62
2022/11/19 07:43:56;;;;;;;14.83;10.75;;;;;;;4.19;100.00;99611.95;1683147;85;21178;-59
2022/11/19 07:46:23;;;;;;;13.60;9.55;;;;;;;4.28;100.00;99610.20;1681946;84;21067;-59
2022/11/19 07:48:54;;;;;;;14.33;10.50;;;;;;;4.35;100.00;99615.05;1683189;85;21099;-61
2022/11/19 07:51:21;;;;;;;16.32;10.40;;;;;;;4.39;100.00;99581.05;1682230;85;20914;-62
2022/11/19 07:53:49;;;;;;;14.85;10.85;;;;;;;4.44;100.00;99581.05;1679809;85;22458;-62
2022/11/19 07:56:16;;;;;;;14.63;10.82;;;;;;;4.46;100.00;99578.62;1645249;87;21187;-75
2022/11/19 07:58:43;;;;;;;14.58;10.20;;;;;;;4.50;100.00;99560.55;1674451;84;21097;-63
2022/11/19 08:01:19;;;;;;;14.90;10.38;;;;;;;4.54;100.00;99569.59;1675436;85;21532;-65
2022/11/19 08:03:46;;;;;;;10.28;8.03;;;;;;;4.57;100.00;99557.66;1675001;84;21128;-64
2022/11/19 08:06:14;;;;;;;12.55;9.05;;;;;;;4.66;100.00;99537.83;1674807;85;21116;-65
2022/11/19 08:08:43;;;;;;;12.45;8.55;;;;;;;4.68;100.00;99546.70;1680779;85;21086;-61
2022/11/19 08:11:12;;;;;;;13.20;8.43;;;;;;;4.69;100.00;99540.55;1645336;85;21528;-60
2022/11/19 08:13:40;;;;;;;9.13;6.47;;;;;;;4.74;100.00;99544.77;1645589;86;21512;-60
2022/11/19 08:19:30;;;;;;;9.30;6.60;;;;;;;4.85;100.00;99536.69;1667280;86;21036;-59
2022/11/19 08:21:57;;;;;;;10.30;6.87;;;;;;;4.90;100.00;99527.15;1654744;86;21894;-60
2022/11/19 08:24:24;;;;;;;9.43;6.17;;;;;;;4.93;100.00;99515.20;1686021;85;21819;-71
2022/11/19 08:26:53;;;;;;;8.83;6.00;;;;;;;4.96;100.00;99525.19;1685967;85;21067;-60
2022/11/19 08:29:22;;;;;;;9.03;6.15;;;;;;;4.98;100.00;99520.19;1675391;85;21099;-61
2022/11/19 08:31:51;;;;;;;7.62;4.67;;;;;;;5.03;100.00;99505.48;1685447;83;21085;-64
2022/11/19 08:34:18;;;;;;;8.18;5.37;;;;;;;5.09;100.00;99501.75;1674079;85;21333;-61
2022/11/19 08:36:45;;;;;;;10.07;6.87;;;;;;;5.09;100.00;99504.34;1673544;85;21607;-61
2022/11/19 08:39:12;;;;;;;9.23;6.70;;;;;;;5.16;100.00;99497.23;1646277;87;21978;-62
2022/11/19 08:44:25;;;;;;;11.27;7.27;;;;;;;5.22;100.00;99501.22;1684331;84;21306;-62
2022/11/19 08:46:53;;;;;;;9.63;6.90;;;;;;;5.27;100.00;99492.98;1688913;84;21400;-64
2022/11/19 08:49:20;;;;;;;11.18;7.28;;;;;;;5.30;100.00;99486.17;1689255;84;21028;-61
2022/11/19 08:51:47;;;;;;;12.07;8.50;;;;;;;5.33;100.00;99470.34;1689452;84;21042;-74
2022/11/19 08:54:15;;;;;;;11.17;8.30;;;;;;;5.37;100.00;99470.31;1689227;84;22161;-64
2022/11/19 08:56:44;;;;;;;10.58;7.90;;;;;;;5.42;100.00;99468.05;1694556;83;21975;-62
2022/11/19 08:59:11;;;;;;;12.78;9.00;;;;;;;5.44;100.00;99469.16;1686007;83;21163;-63
2022/11/19 09:01:40;;;;;;;11.00;8.07;;;;;;;5.35;100.00;99447.73;1674585;85;20993;-64
2022/11/19 09:04:08;;;;;;;12.87;9.77;;;;;;;5.37;100.00;99440.11;1644391;87;21311;-64
2022/11/19 09:06:36;;;;;;;13.30;9.93;;;;;;;5.35;100.00;99429.64;1674190;85;21470;-63
2022/11/19 09:09:03;;;;;;;16.50;11.37;;;;;;;5.39;100.00;99427.03;1645427;86;21755;-61
2022/11/19 09:11:30;;;;;;;17.60;11.75;;;;;;;5.49;100.00;99408.70;1645579;87;22187;-61
2022/11/19 09:13:58;;;;;;;16.00;12.10;;;;;;;5.64;100.00;99403.61;1673999;85;21539;-70
2022/11/19 09:16:26;;;;;;;17.47;14.13;;;;;;;5.64;100.00;99393.27;1645219;85;21654;-72
2022/11/19 09:18:52;;;;;;;20.30;15.23;;;;;;;5.70;100.00;99391.30;1674280;85;21421;-62
2022/11/19 09:21:20;;;;;;;21.37;16.07;;;;;;;5.75;100.00;99392.38;1646196;87;21333;-63
2022/11/19 09:23:47;;;;;;;21.27;15.53;;;;;;;5.79;100.00;99383.78;1645641;87;21267;-68
2022/11/19 09:26:16;;;;;;;19.10;13.80;;;;;;;5.80;100.00;99368.61;1646005;87;22237;-66
2022/11/19 09:28:43;;;;;;;21.87;15.73;;;;;;;5.88;100.00;99367.24;1646215;86;21291;-71
2022/11/19 09:31:14;;;;;;;21.37;15.10;;;;;;;5.86;100.00;99358.84;1645901;87;21795;-64
2022/11/19 09:33:44;;;;;;;20.70;16.90;;;;;;;5.88;100.00;99338.79;1645760;86;21747;-65
2022/11/19 09:36:12;;;;;;;22.40;16.90;;;;;;;5.97;100.00;99331.78;1676405;83;21775;-64
2022/11/19 09:38:40;;;;;;;20.13;16.13;;;;;;;6.06;100.00;99313.44;1673906;84;21311;-69
2022/11/19 09:41:55;;;;;;;19.23;15.17;;;;;;;6.14;100.00;99307.84;1674717;85;21199;-63
2022/11/19 09:44:52;;;;;;;20.33;17.03;;;;;;;6.19;100.00;99319.77;1675721;83;21227;-63
2022/11/19 09:47:45;;;;;;;23.13;17.27;;;;;;;6.27;100.00;99341.19;1674149;85;21190;-63
2022/11/19 09:50:21;;;;;;;22.73;17.73;;;;;;;6.26;100.00;99343.47;1673904;85;21293;-65
2022/11/19 09:53:01;;;;;;;24.33;18.93;;;;;;;6.36;100.00;99353.55;1674618;85;21369;-64
2022/11/19 09:55:36;;;;;;;24.27;18.10;;;;;;;6.47;100.00;99369.14;1674325;84;20995;-70
2022/11/19 09:58:16;;;;;;;23.73;17.30;;;;;;;6.62;100.00;99340.16;1646011;87;21359;-61
2022/11/19 10:00:44;;;;;;;27.90;21.57;;;;;;;6.68;100.00;99359.38;1675292;85;21298;-62
2022/11/19 10:03:23;;;;;;;25.70;20.90;;;;;;;6.82;100.00;99360.66;1646350;86;21262;-72
2022/11/19 10:05:58;;;;;;;27.50;21.57;;;;;;;6.96;100.00;99346.05;1675024;85;21383;-63
2022/11/19 10:08:48;;;;;;;43.30;30.77;;;;;;;7.11;100.00;99347.32;1646375;87;21276;-63
2022/11/19 10:11:54;;;;;;;27.57;22.57;;;;;;;7.18;100.00;99330.55;1645858;85;21945;-63
2022/11/19 10:14:49;;;;;;;29.13;22.47;;;;;;;7.31;100.00;99317.72;1673916;84;21842;-63
2022/11/19 10:17:53;;;;;;;28.77;21.47;;;;;;;7.53;100.00;99297.77;1675251;84;21278;-62
2022/11/19 10:20:41;;;;;;;26.50;20.13;;;;;;;7.77;100.00;99295.30;1674767;85;21788;-62
2022/11/19 10:23:42;;;;;;;29.70;22.63;;;;;;;7.99;100.00;99291.66;1642174;86;21291;-63
2022/11/19 10:26:12;;;;;;;;;;;;;;;8.03;100.00;99273.42;1627398;87;21303;-72
2022/11/19 10:28:46;;;;;;;28.70;22.47;;;;;;;8.23;100.00;99268.84;1597182;88;20124;-63
2022/11/19 10:31:48;;;;;;;24.77;19.03;;;;;;;8.33;100.00;99279.66;1673646;84;21111;-63
2022/11/19 10:34:26;;;;;;;22.07;17.43;;;;;;;8.57;100.00;99277.62;1703732;84;21344;-63
2022/11/19 10:37:03;;;;;;;21.43;18.13;;;;;;;8.76;100.00;99272.98;1704396;84;21351;-60
2022/11/19 10:39:40;;;;;;;19.43;16.77;;;;;;;8.76;100.00;99272.98;1702886;84;21320;-69
2022/11/19 10:42:16;;;;;;;21.23;18.53;;;;;;;8.98;100.00;99279.65;1704278;84;21899;-61
2022/11/19 10:44:52;;;;;;;20.90;17.77;;;;;;;9.15;100.00;99276.17;1699333;83;21602;-61
2022/11/19 10:47:37;;;;;;;22.57;16.70;;;;;;;9.26;100.00;99263.88;1703692;83;21493;-73
2022/11/19 10:50:05;;;;;;;20.27;16.00;;;;;;;9.26;100.00;99263.88;1677916;84;21645;-61
2022/11/19 10:52:39;;;;;;;19.30;16.57;;;;;;;9.41;100.00;99270.70;1689964;84;21506;-62
2022/11/19 10:55:29;;;;;;;18.17;15.80;;;;;;;9.54;100.00;99261.59;1674248;85;21716;-64
2022/11/19 10:58:09;;;;;;;16.70;14.77;;;;;;;9.68;100.00;99257.19;1687125;84;21530;-63
2022/11/19 11:00:37;;;;;;;21.03;16.63;;;;;;;9.84;100.00;99259.88;1703020;84;21199;-63
2022/11/19 11:03:07;;;;;;;20.43;15.73;;;;;;;10.08;100.00;99283.19;1704512;84;23107;-63
2022/11/19 11:06:00;;;;;;;16.83;14.43;;;;;;;10.08;100.00;99283.19;1704635;83;21638;-64
2022/11/19 11:08:29;;;;;;;15.90;14.20;;;;;;;10.14;100.00;99271.94;1704591;83;23130;-62
2022/11/19 11:10:56;;;;;;;17.23;14.03;;;;;;;10.24;100.00;99271.02;1704036;83;22187;-63
2022/11/19 11:16:27;;;;;;;16.63;13.33;;;;;;;10.29;100.00;99280.84;1704058;84;23064;-62
2022/11/19 11:18:56;;;;;;;17.03;13.53;;;;;;;10.34;100.00;99265.39;1704186;83;20975;-64
2022/11/19 11:21:29;;;;;;;13.97;12.40;;;;;;;10.36;100.00;99266.00;1703819;84;21664;-77
2022/11/19 11:23:56;;;;;;;16.17;13.10;;;;;;;10.34;100.00;99264.91;1704195;83;21802;-64
2022/11/19 11:26:27;;;;;;;13.73;12.33;;;;;;;10.33;100.00;99247.66;1704410;84;20938;-64
2022/11/19 11:29:03;;;;;;;13.33;11.50;;;;;;;10.36;100.00;99255.07;1704274;82;21775;-64
2022/11/19 11:31:35;;;;;;;14.43;12.50;;;;;;;10.54;100.00;99255.71;1711435;82;21005;-76
2022/11/19 11:34:04;;;;;;;17.40;14.00;;;;;;;10.54;100.00;99255.71;1713816;82;22319;-64
2022/11/19 11:36:35;;;;;;;15.77;13.00;;;;;;;10.62;100.00;99245.55;1710861;82;21180;-63
2022/11/19 11:39:03;;;;;;;16.13;13.13;;;;;;;10.67;100.00;99247.82;1713567;82;21151;-67
2022/11/19 11:41:39;;;;;;;15.53;13.80;;;;;;;10.69;100.00;99241.11;1713971;82;20974;-76
2022/11/19 11:44:11;;;;;;;18.67;15.40;;;;;;;10.75;100.00;99245.98;1709653;82;21222;-63
2022/11/19 11:47:16;;;;;;;13.67;12.17;;;;;;;10.79;100.00;99248.47;1716353;82;21583;-63
2022/11/19 11:49:58;;;;;;;16.03;12.70;;;;;;;10.79;100.00;99253.17;1708364;82;21266;-64
2022/11/19 11:52:44;;;;;;;13.37;11.97;;;;;;;10.92;100.00;99244.50;1703366;84;21018;-69
2022/11/19 11:55:28;;;;;;;19.43;14.33;;;;;;;11.01;100.00;99243.73;1698505;83;21798;-63
2022/11/19 11:58:01;;;;;;;16.50;13.07;;;;;;;11.09;100.00;99244.78;1704231;83;22047;-64
2022/11/19 12:00:36;;;;;;;17.67;15.00;;;;;;;11.16;100.00;99239.02;1681250;83;21547;-66
2022/11/19 12:03:14;;;;;;;22.27;18.13;;;;;;;11.24;100.00;99239.27;1697096;83;21445;-63
2022/11/19 12:06:04;;;;;;;18.97;16.73;;;;;;;11.28;100.00;99243.84;1695969;83;20958;-64
2022/11/19 13:13:08;;;;;;;44.23;32.93;;;;;;;10.02;100.00;99311.32;1846541;76;23371;-69